createdAt,value
2023-04-10T00:02:05.413Z,74.38
2023-04-10T00:04:33.902Z,74.31
2023-04-10T00:07:01.921Z,74.76
2023-04-10T00:09:31.045Z,75.33
2023-04-10T00:11:59.047Z,75.66
2023-04-10T00:14:27.218Z,78.27
2023-04-10T00:16:55.191Z,78.44
2023-04-10T00:19:23.277Z,79.33
2023-04-10T00:21:51.333Z,79.85
2023-04-10T00:24:19.293Z,80.75
2023-04-10T00:26:47.246Z,81.32
2023-04-10T00:29:15.304Z,81.90
2023-04-10T00:31:43.304Z,82.88
2023-04-10T00:34:11.394Z,82.27
2023-04-10T00:36:39.360Z,82.33
2023-04-10T00:39:08.724Z,82.73
2023-04-10T00:41:36.829Z,82.27
2023-04-10T00:44:04.873Z,82.08
2023-04-10T00:46:33.043Z,82.69
2023-04-10T00:49:01.110Z,82.61
2023-04-10T00:51:29.252Z,82.92
2023-04-10T00:53:57.618Z,83.76
2023-04-10T00:56:25.761Z,84.17
2023-04-10T00:58:53.734Z,83.94
2023-04-10T01:01:21.684Z,84.23
2023-04-10T01:03:49.739Z,84.90
2023-04-10T01:06:36.506Z,83.93
2023-04-10T01:09:35.494Z,85.49
2023-04-10T01:12:41.171Z,85.57
2023-04-10T01:15:17.902Z,85.93
2023-04-10T01:17:56.701Z,86.11
2023-04-10T01:20:25.625Z,85.86
2023-04-10T01:22:53.493Z,85.54
2023-04-10T01:25:39.761Z,85.19
2023-04-10T01:28:41.855Z,85.86
2023-04-10T01:31:11.785Z,85.43
2023-04-10T01:33:48.035Z,85.06
2023-04-10T01:36:17.641Z,85.63
2023-04-10T01:38:45.763Z,86.11
2023-04-10T01:41:13.768Z,86.46
2023-04-10T01:43:41.885Z,86.79
2023-04-10T01:46:09.869Z,87.73
2023-04-10T01:48:38.100Z,88.00
2023-04-10T01:51:06.238Z,87.20
2023-04-10T01:53:34.175Z,87.96
2023-04-10T01:56:04.162Z,87.17
2023-04-10T01:58:32.200Z,87.29
2023-04-10T02:01:00.184Z,88.03
2023-04-10T02:03:28.297Z,88.25
2023-04-10T02:06:20.626Z,88.85
2023-04-10T02:08:54.538Z,88.59
2023-04-10T02:11:31.758Z,88.30
2023-04-10T02:14:02.469Z,88.82
2023-04-10T02:16:30.918Z,89.31
2023-04-10T02:18:58.932Z,90.04
2023-04-10T02:21:28.400Z,89.95
2023-04-10T02:23:58.716Z,90.26
2023-04-10T02:26:26.748Z,91.42
2023-04-10T02:28:54.680Z,90.78
2023-04-10T02:31:22.781Z,90.95
2023-04-10T02:33:50.866Z,91.03
2023-04-10T02:36:18.991Z,90.57
2023-04-10T02:38:46.988Z,90.69
2023-04-10T02:41:15.010Z,90.88
2023-04-10T02:43:43.093Z,91.14
2023-04-10T02:46:11.139Z,91.17
2023-04-10T02:48:39.200Z,90.48
2023-04-10T02:51:08.129Z,90.55
2023-04-10T02:53:36.089Z,91.18
2023-04-10T02:56:04.126Z,91.79
2023-04-10T02:58:32.108Z,92.09
2023-04-10T03:01:00.133Z,93.24
2023-04-10T03:03:28.651Z,92.66
2023-04-10T03:05:57.019Z,92.41
2023-04-10T03:08:25.271Z,93.04
2023-04-10T03:10:53.278Z,92.79
2023-04-10T03:13:21.220Z,92.80
2023-04-10T03:15:49.397Z,93.21
2023-04-10T03:18:17.453Z,92.85
2023-04-10T03:20:45.464Z,93.32
2023-04-10T03:23:13.466Z,93.17
2023-04-10T03:25:42.509Z,93.35
2023-04-10T03:28:10.522Z,93.47
2023-04-10T03:30:38.453Z,93.16
2023-04-10T03:33:06.774Z,94.28
2023-04-10T03:35:34.798Z,93.95
2023-04-10T03:38:02.801Z,94.23
2023-04-10T03:40:30.743Z,94.11
2023-04-10T03:42:58.633Z,94.23
2023-04-10T03:45:26.638Z,94.46
2023-04-10T03:47:54.683Z,95.82
2023-04-10T03:50:22.750Z,97.24
2023-04-10T03:52:53.685Z,97.44
2023-04-10T03:55:21.879Z,97.48
2023-04-10T03:57:50.067Z,97.11
2023-04-10T04:00:18.292Z,96.98
2023-04-10T04:02:46.485Z,97.08
2023-04-10T04:05:14.618Z,97.37
2023-04-10T04:07:42.574Z,97.16
2023-04-10T04:10:10.714Z,97.53
2023-04-10T04:12:38.819Z,97.25
2023-04-10T04:15:07.272Z,98.15
2023-04-10T04:17:35.262Z,97.77
2023-04-10T04:20:03.360Z,97.89
2023-04-10T04:22:31.327Z,98.05
2023-04-10T04:24:59.298Z,98.37
2023-04-10T04:27:27.550Z,98.17
2023-04-10T04:29:55.568Z,98.37
2023-04-10T04:32:23.522Z,98.40
2023-04-10T04:34:51.617Z,98.47
2023-04-10T04:37:19.596Z,98.55
2023-04-10T04:39:47.595Z,98.70
2023-04-10T04:42:15.538Z,98.71
2023-04-10T04:44:43.521Z,98.67
2023-04-10T04:47:11.641Z,98.66
2023-04-10T04:49:39.677Z,98.80
2023-04-10T04:52:07.639Z,98.88
2023-04-10T04:54:35.605Z,98.54
2023-04-10T04:57:03.664Z,98.61
2023-04-10T04:59:31.709Z,99.60
2023-04-10T05:01:59.873Z,99.26
2023-04-10T05:04:28.093Z,99.00
2023-04-10T05:06:56.059Z,98.79
2023-04-10T05:09:24.056Z,99.30
2023-04-10T05:11:52.680Z,98.77
2023-04-10T05:14:21.934Z,99.13
2023-04-10T05:16:49.900Z,98.36
2023-04-10T05:19:18.355Z,99.18
2023-04-10T05:21:46.462Z,99.18
2023-04-10T05:24:14.472Z,99.28
2023-04-10T05:26:43.878Z,98.68
2023-04-10T05:29:11.917Z,99.31
2023-04-10T05:31:40.116Z,98.65
2023-04-10T05:34:08.134Z,98.75
2023-04-10T05:36:36.594Z,98.23
2023-04-10T05:39:04.573Z,99.50
2023-04-10T05:41:32.642Z,99.57
2023-04-10T05:44:00.717Z,96.86
2023-04-10T05:46:28.765Z,96.78
2023-04-10T05:48:56.929Z,96.40
2023-04-10T05:51:24.977Z,96.86
2023-04-10T05:53:52.962Z,96.37
2023-04-10T05:56:20.932Z,95.97
2023-04-10T05:58:48.875Z,96.04
2023-04-10T06:01:16.918Z,96.64
2023-04-10T06:03:45.087Z,97.21
2023-04-10T06:06:13.408Z,96.95
2023-04-10T06:08:41.883Z,97.30
2023-04-10T06:11:09.890Z,97.89
2023-04-10T06:13:38.022Z,97.40
2023-04-10T06:16:06.808Z,96.80
2023-04-10T06:18:34.804Z,96.05
2023-04-10T06:21:03.422Z,96.58
2023-04-10T06:23:31.855Z,95.89
2023-04-10T06:25:59.801Z,96.55
2023-04-10T06:28:27.803Z,96.21
2023-04-10T06:30:56.080Z,96.40
2023-04-10T06:33:26.221Z,96.52
2023-04-10T06:35:54.445Z,95.72
2023-04-10T06:38:22.434Z,95.52
2023-04-10T06:40:50.453Z,94.79
2023-04-10T06:43:18.466Z,94.02
2023-04-10T06:45:47.049Z,93.83
2023-04-10T06:48:15.150Z,94.17
2023-04-10T06:50:43.193Z,92.87
2023-04-10T06:53:11.217Z,92.91
2023-04-10T06:55:40.007Z,93.24
2023-04-10T06:58:07.983Z,93.97
2023-04-10T07:00:36.007Z,93.01
2023-04-10T07:03:04.045Z,93.52
2023-04-10T07:05:32.213Z,92.45
2023-04-10T07:08:00.251Z,92.61
2023-04-10T07:10:28.352Z,92.00
2023-04-10T07:12:58.604Z,90.63
2023-04-10T07:15:27.434Z,90.48
2023-04-10T07:17:55.423Z,90.25
2023-04-10T07:20:23.447Z,88.62
2023-04-10T07:22:51.742Z,88.93
2023-04-10T07:25:19.880Z,87.79
2023-04-10T07:27:47.802Z,86.65
2023-04-10T07:30:15.830Z,86.43
2023-04-10T07:32:43.984Z,86.12
2023-04-10T07:35:12.375Z,81.60
2023-04-10T07:37:41.240Z,81.53
2023-04-10T07:40:09.861Z,81.85
2023-04-10T07:42:37.952Z,81.15
2023-04-10T07:45:06.597Z,78.35
2023-04-10T07:47:34.659Z,76.66
2023-04-10T07:50:02.860Z,77.66
2023-04-10T07:52:30.867Z,76.24
2023-04-10T07:54:58.855Z,73.48
2023-04-10T07:57:27.123Z,72.34
2023-04-10T07:59:55.179Z,72.32
2023-04-10T08:02:23.411Z,71.64
2023-04-10T08:04:51.752Z,72.46
2023-04-10T08:07:22.338Z,70.64
2023-04-10T08:09:50.373Z,72.64
2023-04-10T08:12:19.036Z,69.01
2023-04-10T08:14:47.502Z,66.15
2023-04-10T08:17:16.145Z,67.58
2023-04-10T08:19:44.127Z,66.10
2023-04-10T08:22:12.106Z,67.50
2023-04-10T08:24:40.190Z,64.58
2023-04-10T08:27:08.260Z,66.51
2023-04-10T08:29:36.337Z,62.40
2023-04-10T08:32:04.411Z,63.00
2023-04-10T08:34:32.402Z,61.82
2023-04-10T08:37:00.360Z,62.21
2023-04-10T08:39:28.475Z,63.00
2023-04-10T08:41:56.708Z,60.29
2023-04-10T08:44:24.682Z,59.76
2023-04-10T08:46:52.662Z,61.08
2023-04-10T08:49:33.110Z,56.89
2023-04-10T08:52:01.434Z,57.11
2023-04-10T08:54:30.409Z,56.87
2023-04-10T08:56:59.841Z,54.97
2023-04-10T08:59:28.028Z,56.49
2023-04-10T09:01:56.158Z,55.98
2023-04-10T09:04:27.886Z,54.17
2023-04-10T09:06:55.923Z,54.50
2023-04-10T09:09:23.916Z,54.30
2023-04-10T09:11:58.002Z,52.52
2023-04-10T09:14:27.280Z,53.70
2023-04-10T09:16:56.111Z,53.47
2023-04-10T09:19:34.131Z,52.71
2023-04-10T09:22:02.139Z,51.12
2023-04-10T09:24:30.164Z,54.90
2023-04-10T09:26:58.183Z,51.44
2023-04-10T09:29:26.181Z,50.43
2023-04-10T09:31:54.153Z,49.41
2023-04-10T09:34:23.795Z,48.04
2023-04-10T09:36:59.328Z,48.89
2023-04-10T09:39:35.545Z,47.30
2023-04-10T09:42:03.525Z,43.92
2023-04-10T09:44:33.245Z,43.68
2023-04-10T09:47:16.789Z,43.63
2023-04-10T09:49:55.223Z,42.82
2023-04-10T09:52:27.933Z,40.93
2023-04-10T09:54:57.088Z,40.13
2023-04-10T09:57:26.304Z,40.67
2023-04-10T09:59:55.729Z,40.24
2023-04-10T10:02:25.123Z,41.64
2023-04-10T10:04:53.910Z,39.81
2023-04-10T10:07:23.375Z,36.30
2023-04-10T10:09:53.142Z,38.15
2023-04-10T10:12:24.793Z,37.91
2023-04-10T10:15:17.151Z,36.29
2023-04-10T10:17:47.546Z,37.18
2023-04-10T10:20:15.868Z,35.29
2023-04-10T10:22:44.125Z,35.07
2023-04-10T10:25:12.443Z,38.91
2023-04-10T10:27:40.834Z,37.96
2023-04-10T10:30:25.241Z,37.96
2023-04-10T10:32:57.155Z,38.47
2023-04-10T10:35:27.279Z,38.37
2023-04-10T10:37:57.082Z,36.66
2023-04-10T10:40:48.275Z,36.55
2023-04-10T10:43:18.014Z,36.71
2023-04-10T10:45:52.004Z,37.19
2023-04-10T10:48:20.155Z,37.06
2023-04-10T10:50:56.261Z,36.97
2023-04-10T10:53:35.196Z,35.50
2023-04-10T10:56:27.978Z,35.28
2023-04-10T10:58:58.866Z,33.31
2023-04-10T11:01:27.624Z,35.28
2023-04-10T11:03:55.921Z,36.53
2023-04-10T11:06:44.791Z,36.43
2023-04-10T11:09:48.823Z,33.93
2023-04-10T11:12:17.911Z,33.73
2023-04-10T11:14:45.895Z,33.80
2023-04-10T11:17:14.167Z,34.15
2023-04-10T11:20:01.992Z,34.29
2023-04-10T11:22:30.315Z,34.43
2023-04-10T11:25:00.641Z,34.93
2023-04-10T11:27:42.436Z,35.36
2023-04-10T11:30:33.673Z,35.72
2023-04-10T11:33:02.193Z,36.24
2023-04-10T11:35:30.411Z,37.32
2023-04-10T11:38:14.847Z,37.40
2023-04-10T11:40:56.282Z,34.90
2023-04-10T11:43:24.370Z,34.79
2023-04-10T11:45:52.471Z,35.66
2023-04-10T11:48:20.617Z,35.41
2023-04-10T11:50:48.647Z,34.24
2023-04-10T11:53:23.141Z,33.28
2023-04-10T11:55:51.176Z,33.66
2023-04-10T11:58:29.186Z,32.79
2023-04-10T12:01:05.684Z,30.79
2023-04-10T12:03:34.693Z,30.73
2023-04-10T12:06:03.016Z,30.70
2023-04-10T12:08:38.923Z,30.34
2023-04-10T12:11:07.549Z,28.74
2023-04-10T12:13:35.571Z,28.18
2023-04-10T12:16:13.898Z,29.23
2023-04-10T12:18:42.037Z,26.21
2023-04-10T12:21:10.075Z,26.38
2023-04-10T12:23:40.205Z,25.95
2023-04-10T12:26:09.429Z,26.41
2023-04-10T12:28:37.974Z,23.68
2023-04-10T12:31:06.250Z,25.16
2023-04-10T12:33:34.309Z,24.82
2023-04-10T12:36:02.593Z,24.46
2023-04-10T12:38:38.039Z,22.28
2023-04-10T12:41:06.361Z,23.47
2023-04-10T12:43:44.123Z,23.64
2023-04-10T12:46:12.312Z,19.23
2023-04-10T12:48:40.400Z,20.14
2023-04-10T12:51:08.680Z,21.17
2023-04-10T12:53:45.436Z,21.71
2023-04-10T12:56:13.763Z,21.35
2023-04-10T12:58:43.885Z,22.00
2023-04-10T13:01:11.973Z,20.35
2023-04-10T13:03:40.144Z,21.11
2023-04-10T13:06:08.918Z,20.74
2023-04-10T13:08:37.004Z,19.49
2023-04-10T13:11:05.222Z,19.48
2023-04-10T13:13:34.062Z,20.90
2023-04-10T13:16:02.312Z,19.33
2023-04-10T13:18:30.375Z,21.41
2023-04-10T13:20:58.387Z,21.38
2023-04-10T13:23:26.459Z,18.44
2023-04-10T13:25:54.901Z,20.21
2023-04-10T13:28:23.209Z,21.09
2023-04-10T13:30:51.384Z,20.24
2023-04-10T13:33:19.430Z,19.16
2023-04-10T13:35:47.433Z,19.79
2023-04-10T13:38:15.782Z,19.82
2023-04-10T13:40:43.709Z,21.08
2023-04-10T13:43:11.728Z,21.14
2023-04-10T13:45:39.869Z,21.80
2023-04-10T13:48:08.895Z,23.53
2023-04-10T13:50:37.008Z,21.62
2023-04-10T13:53:05.042Z,20.52
2023-04-10T13:55:33.056Z,21.49
2023-04-10T13:58:01.098Z,21.22
2023-04-10T14:00:29.276Z,20.73
2023-04-10T14:02:57.362Z,21.04
2023-04-10T14:05:25.489Z,21.84
2023-04-10T14:07:58.088Z,21.90
2023-04-10T14:10:26.103Z,21.11
2023-04-10T14:12:54.002Z,20.96
2023-04-10T14:15:22.184Z,21.17
2023-04-10T14:17:50.368Z,22.13
2023-04-10T14:20:18.356Z,21.37
2023-04-10T14:22:46.473Z,22.20
2023-04-10T14:25:17.160Z,21.78
2023-04-10T14:27:45.254Z,21.36
2023-04-10T14:30:13.461Z,21.90
2023-04-10T14:32:41.549Z,21.93
2023-04-10T14:35:10.782Z,22.94
2023-04-10T14:37:39.194Z,22.72
2023-04-10T14:40:08.121Z,22.83
2023-04-10T14:42:36.233Z,21.99
2023-04-10T14:45:04.570Z,23.09
2023-04-10T14:47:32.793Z,23.57
2023-04-10T14:50:00.765Z,24.00
2023-04-10T14:52:28.780Z,24.22
2023-04-10T14:54:56.761Z,23.78
2023-04-10T14:57:24.818Z,24.90
2023-04-10T14:59:52.912Z,23.44
2023-04-10T15:02:21.059Z,23.66
2023-04-10T15:04:49.114Z,23.70
2023-04-10T15:07:17.244Z,22.99
2023-04-10T15:09:46.031Z,23.38
2023-04-10T15:12:14.183Z,23.12
2023-04-10T15:14:42.297Z,22.88
2023-04-10T15:17:10.311Z,23.09
2023-04-10T15:19:38.373Z,23.53
2023-04-10T15:22:06.363Z,24.03
2023-04-10T15:24:47.009Z,24.15
2023-04-10T15:27:20.019Z,24.87
2023-04-10T15:29:48.036Z,26.27
2023-04-10T15:32:16.170Z,26.36
2023-04-10T15:34:44.918Z,26.37
2023-04-10T15:37:13.013Z,25.76
2023-04-10T15:39:41.144Z,27.77
2023-04-10T15:42:09.839Z,27.06
2023-04-10T15:44:37.896Z,27.09
2023-04-10T15:47:05.956Z,26.92
2023-04-10T15:49:37.656Z,28.70
2023-04-10T15:52:07.609Z,28.22
2023-04-10T15:54:36.057Z,28.69
2023-04-10T15:57:04.860Z,29.77
2023-04-10T15:59:33.927Z,30.41
2023-04-10T16:02:02.383Z,29.31
2023-04-10T16:04:32.082Z,29.87
2023-04-10T16:07:00.181Z,31.27
2023-04-10T16:09:28.569Z,31.50
2023-04-10T16:11:57.527Z,31.30
2023-04-10T16:14:25.660Z,31.42
2023-04-10T16:16:53.898Z,32.57
2023-04-10T16:19:21.973Z,32.77
2023-04-10T16:21:50.217Z,32.88
2023-04-10T16:24:18.321Z,33.40
2023-04-10T16:26:46.386Z,32.57
2023-04-10T16:29:14.519Z,32.80
2023-04-10T16:31:42.770Z,34.33
2023-04-10T16:34:10.820Z,33.65
2023-04-10T16:36:38.970Z,33.61
2023-04-10T16:39:08.748Z,33.46
2023-04-10T16:41:37.227Z,34.13
2023-04-10T16:44:05.278Z,35.35
2023-04-10T16:46:34.381Z,34.48
2023-04-10T16:49:02.967Z,35.33
2023-04-10T16:51:31.061Z,34.20
2023-04-10T16:53:59.123Z,35.08
2023-04-10T16:56:27.324Z,34.32
2023-04-10T16:58:55.499Z,34.50
2023-04-10T17:01:27.163Z,34.35
2023-04-10T17:03:56.198Z,34.38
2023-04-10T17:06:24.386Z,34.25
2023-04-10T17:08:52.504Z,34.21
2023-04-10T17:11:20.611Z,34.20
2023-04-10T17:13:48.595Z,34.21
2023-04-10T17:16:17.363Z,34.42
2023-04-10T17:18:45.472Z,34.09
2023-04-10T17:21:16.638Z,34.54
2023-04-10T17:23:44.653Z,34.90
2023-04-10T17:26:16.467Z,34.60
2023-04-10T17:28:47.651Z,34.13
2023-04-10T17:31:15.761Z,34.62
2023-04-10T17:33:44.245Z,34.79
2023-04-10T17:36:13.610Z,34.74
2023-04-10T17:38:42.599Z,35.58
2023-04-10T17:41:11.077Z,35.96
2023-04-10T17:43:39.235Z,38.06
2023-04-10T17:46:07.664Z,37.50
2023-04-10T17:48:35.805Z,39.66
2023-04-10T17:51:08.304Z,39.30
2023-04-10T17:53:37.199Z,40.27
2023-04-10T17:56:05.684Z,39.01
2023-04-10T17:58:33.701Z,39.50
2023-04-10T18:01:01.852Z,41.20
2023-04-10T18:03:30.198Z,40.83
2023-04-10T18:05:58.382Z,42.04
2023-04-10T18:08:26.767Z,43.15
2023-04-10T18:10:54.756Z,42.56
2023-04-10T18:13:22.798Z,45.10
2023-04-10T18:15:50.937Z,44.13
2023-04-10T18:18:18.983Z,44.97
2023-04-10T18:20:46.976Z,44.89
2023-04-10T18:23:15.007Z,45.34
2023-04-10T18:25:42.953Z,45.47
2023-04-10T18:28:15.383Z,47.15
2023-04-10T18:30:44.100Z,47.12
2023-04-10T18:33:12.384Z,46.01
2023-04-10T18:35:40.397Z,47.01
2023-04-10T18:38:08.395Z,46.51
2023-04-10T18:40:38.062Z,46.70
2023-04-10T18:43:06.133Z,46.50
2023-04-10T18:45:35.652Z,46.19
2023-04-10T18:48:04.138Z,46.87
2023-04-10T18:50:35.067Z,45.78
2023-04-10T18:53:03.120Z,46.37
2023-04-10T18:55:31.389Z,45.88
2023-04-10T18:57:59.454Z,46.51
2023-04-10T19:00:27.438Z,46.80
2023-04-10T19:02:56.445Z,47.04
2023-04-10T19:05:24.774Z,48.79
2023-04-10T19:08:03.063Z,48.38
2023-04-10T19:10:32.335Z,50.45
2023-04-10T19:13:00.388Z,52.14
2023-04-10T19:15:28.552Z,50.42
2023-04-10T19:17:56.704Z,52.46
2023-04-10T19:20:50.248Z,50.23
2023-04-10T19:23:14.210Z,50.81
2023-04-10T19:25:42.646Z,53.74
2023-04-10T19:28:10.631Z,53.21
2023-04-10T19:30:38.635Z,52.03
2023-04-10T19:33:06.677Z,54.05
2023-04-10T19:35:34.697Z,54.30
2023-04-10T19:38:02.847Z,53.59
2023-04-10T19:40:32.024Z,53.41
2023-04-10T19:43:01.699Z,55.44
2023-04-10T19:45:30.610Z,54.96
2023-04-10T19:47:58.768Z,55.67
2023-04-10T19:50:27.211Z,54.82
2023-04-10T19:52:55.360Z,54.92
2023-04-10T19:55:23.403Z,55.87
2023-04-10T19:57:51.931Z,55.36
2023-04-10T20:00:20.386Z,55.14
2023-04-10T20:02:48.810Z,56.64
2023-04-10T20:05:17.207Z,56.64
2023-04-10T20:07:45.311Z,55.55
2023-04-10T20:10:13.684Z,55.73
2023-04-10T20:12:41.734Z,56.62
2023-04-10T20:15:10.705Z,59.17
2023-04-10T20:17:40.027Z,59.50
2023-04-10T20:20:08.808Z,59.22
2023-04-10T20:22:36.881Z,59.86
2023-04-10T20:25:05.366Z,59.40
2023-04-10T20:27:33.597Z,59.58
2023-04-10T20:30:01.621Z,61.63
2023-04-10T20:32:29.686Z,60.32
2023-04-10T20:34:57.767Z,60.54
2023-04-10T20:37:26.740Z,62.13
2023-04-10T20:39:54.840Z,62.79
2023-04-10T20:42:24.858Z,62.62
2023-04-10T20:44:52.965Z,63.06
2023-04-10T20:47:20.988Z,62.52
2023-04-10T20:49:49.014Z,64.20
2023-04-10T20:52:17.252Z,64.00
2023-04-10T20:54:45.275Z,63.31
2023-04-10T20:57:13.302Z,63.15
2023-04-10T20:59:41.253Z,64.62
2023-04-10T21:02:09.278Z,62.28
2023-04-10T21:04:37.487Z,61.76
2023-04-10T21:07:05.489Z,61.41
2023-04-10T21:09:33.499Z,60.80
2023-04-10T21:12:01.415Z,62.02
2023-04-10T21:14:29.415Z,64.72
2023-04-10T21:16:57.502Z,64.90
2023-04-10T21:19:25.577Z,64.54
2023-04-10T21:21:53.508Z,63.55
2023-04-10T21:24:21.661Z,63.66
2023-04-10T21:26:49.843Z,64.32
2023-04-10T21:29:17.751Z,65.27
2023-04-10T21:31:45.696Z,64.90
2023-04-10T21:34:13.781Z,64.83
2023-04-10T21:36:41.793Z,64.71
2023-04-10T21:39:10.601Z,66.48
2023-04-10T21:41:39.209Z,66.35
2023-04-10T21:44:07.624Z,65.07
2023-04-10T21:46:35.559Z,65.24
2023-04-10T21:49:04.385Z,63.12
2023-04-10T21:51:32.646Z,63.57
2023-04-10T21:54:00.699Z,61.59
2023-04-10T21:56:28.724Z,60.88
2023-04-10T21:58:56.754Z,62.45
2023-04-10T22:01:24.734Z,61.15
2023-04-10T22:03:52.804Z,61.10
2023-04-10T22:06:20.975Z,61.12
2023-04-10T22:08:48.915Z,60.97
2023-04-10T22:11:17.002Z,60.26
2023-04-10T22:13:44.976Z,61.69
2023-04-10T22:16:12.990Z,61.15
2023-04-10T22:18:40.929Z,61.81
2023-04-10T22:21:09.093Z,61.89
2023-04-10T22:23:37.020Z,62.21
2023-04-10T22:26:04.975Z,61.26
2023-04-10T22:28:33.027Z,60.22
2023-04-10T22:31:01.168Z,59.79
2023-04-10T22:33:29.365Z,59.69
2023-04-10T22:35:57.334Z,60.55
2023-04-10T22:38:25.349Z,61.29
2023-04-10T22:40:55.436Z,64.39
2023-04-10T22:43:23.375Z,63.33
2023-04-10T22:45:51.400Z,63.21
2023-04-10T22:48:19.431Z,62.94
2023-04-10T22:50:47.442Z,61.47
2023-04-10T22:53:15.422Z,61.14
2023-04-10T22:55:43.438Z,61.31
2023-04-10T22:58:11.831Z,60.69
2023-04-10T23:00:39.882Z,60.71
2023-04-10T23:03:08.272Z,60.34
2023-04-10T23:05:36.351Z,59.95
2023-04-10T23:08:04.332Z,61.06
2023-04-10T23:10:32.293Z,60.81
2023-04-10T23:13:00.320Z,60.99
2023-04-10T23:15:28.419Z,61.44
2023-04-10T23:17:56.520Z,61.60
2023-04-10T23:20:24.668Z,61.86
2023-04-10T23:22:52.673Z,61.00
2023-04-10T23:25:20.640Z,62.30
2023-04-10T23:27:48.612Z,61.88
2023-04-10T23:30:16.783Z,60.19
2023-04-10T23:32:44.810Z,60.59
2023-04-10T23:35:12.844Z,62.50
2023-04-10T23:37:40.836Z,63.93
2023-04-10T23:40:09.530Z,63.72
2023-04-10T23:42:37.453Z,64.05
2023-04-10T23:45:05.887Z,64.85
2023-04-10T23:47:33.810Z,65.37
2023-04-10T23:50:01.963Z,66.11
2023-04-10T23:52:30.024Z,67.08
2023-04-10T23:54:57.985Z,66.54
2023-04-10T23:57:25.944Z,65.39
2023-04-10T23:59:54.339Z,66.54
